Time;durP1;ratioP1;P1;durP2;ratioP2;P2;SDS_P1;SDS_P2;PMS_P1;PMS_P2;Temp;Humidity;BMP_temperature;BMP_pressure;BME280_temperature;BME280_humidity;BME280_pressure;Samples;Min_cycle;Max_cycle;Signal;HPM_P1;HPM_P2
2024/01/11 00:01:31;;;;;;;35.80;20.60;;;;;;;0.00;100.00;97356.88;5104750;28;20663;-59
2024/01/11 00:04:00;;;;;;;32.37;19.37;;;;;;;0.03;100.00;97358.53;5104986;28;20200;-58
2024/01/11 00:06:28;;;;;;;35.33;20.67;;;;;;;0.06;100.00;97352.34;5105784;28;20371;-58
2024/01/11 00:08:55;;;;;;;34.30;20.80;;;;;;;0.03;100.00;97357.69;5106397;28;20205;-58
2024/01/11 00:11:22;;;;;;;40.83;21.00;;;;;;;-0.07;100.00;97359.78;5107101;28;20637;-59
2024/01/11 00:13:49;;;;;;;37.00;21.67;;;;;;;-0.02;100.00;97360.44;5105632;28;20672;-59
2024/01/11 00:16:15;;;;;;;39.37;21.13;;;;;;;0.03;100.00;97366.31;5104175;28;20270;-58
2024/01/11 00:18:42;;;;;;;36.23;19.60;;;;;;;-0.02;100.00;97363.06;5104890;28;20213;-58
2024/01/11 00:21:11;;;;;;;33.73;19.20;;;;;;;-0.01;100.00;97363.00;5104735;28;20197;-58
2024/01/11 00:23:37;;;;;;;38.63;21.20;;;;;;;-0.08;100.00;97363.31;5104407;28;20211;-59
2024/01/11 00:26:06;;;;;;;41.00;22.30;;;;;;;-0.04;100.00;97357.91;5104432;27;20207;-58
2024/01/11 00:28:33;;;;;;;42.70;22.03;;;;;;;-0.01;100.00;97360.41;5104832;27;20516;-59
2024/01/11 00:31:00;;;;;;;34.37;20.47;;;;;;;0.06;100.00;97360.16;5103631;28;20222;-58
2024/01/11 00:33:27;;;;;;;37.50;20.43;;;;;;;0.04;100.00;97361.97;5104063;28;20204;-58
2024/01/11 00:35:54;;;;;;;36.37;19.83;;;;;;;0.06;100.00;97362.75;5104676;27;20201;-59
2024/01/11 00:38:22;;;;;;;42.07;21.53;;;;;;;0.08;100.00;97358.31;5103470;28;20312;-58
2024/01/11 00:40:49;;;;;;;36.67;20.80;;;;;;;0.07;100.00;97361.84;5104990;27;20196;-58
2024/01/11 00:43:16;;;;;;;35.53;19.37;;;;;;;0.08;100.00;97350.50;5104769;28;20249;-59
2024/01/11 00:45:42;;;;;;;34.50;20.47;;;;;;;0.10;100.00;97359.13;5104543;27;20201;-57
2024/01/11 00:48:09;;;;;;;37.17;19.27;;;;;;;0.05;100.00;97356.69;5119106;28;20217;-58
2024/01/11 00:50:36;;;;;;;36.13;20.80;;;;;;;0.07;100.00;97364.44;5117278;27;20275;-58
2024/01/11 00:53:02;;;;;;;38.27;20.67;;;;;;;-0.01;100.00;97360.41;5121701;28;20216;-58
2024/01/11 00:55:31;;;;;;;34.83;20.33;;;;;;;0.00;100.00;97369.88;5118496;28;20225;-59
2024/01/11 00:57:57;;;;;;;36.50;20.70;;;;;;;0.03;100.00;97362.88;5121733;28;20206;-58
2024/01/11 01:00:24;;;;;;;39.93;20.17;;;;;;;-0.05;100.00;97364.03;5104262;28;20201;-58
2024/01/11 01:02:50;;;;;;;38.03;20.87;;;;;;;-0.06;100.00;97372.72;5105000;28;20201;-58
2024/01/11 01:05:17;;;;;;;39.37;20.60;;;;;;;-0.03;100.00;97367.41;5104239;27;20614;-57
2024/01/11 01:07:43;;;;;;;34.60;18.43;;;;;;;0.05;100.00;97371.44;5104719;28;20197;-59
2024/01/11 01:10:10;;;;;;;36.33;19.83;;;;;;;0.00;100.00;97369.88;5104562;28;20212;-59
2024/01/11 01:12:38;;;;;;;32.80;19.27;;;;;;;0.05;100.00;97368.84;5108059;28;20295;-59
2024/01/11 01:15:06;;;;;;;34.23;18.90;;;;;;;0.08;100.00;97376.53;5113103;27;20206;-59
2024/01/11 01:17:33;;;;;;;39.23;20.63;;;;;;;0.11;100.00;97379.84;5114724;28;20229;-59
2024/01/11 01:20:03;;;;;;;35.90;20.40;;;;;;;0.08;100.00;97373.91;5114682;28;20698;-58
2024/01/11 01:22:29;;;;;;;34.77;19.07;;;;;;;0.03;100.00;97378.47;5116258;28;20197;-59
2024/01/11 01:24:56;;;;;;;36.30;20.07;;;;;;;0.10;100.00;97390.31;5109566;28;20201;-59
2024/01/11 01:27:23;;;;;;;37.00;20.07;;;;;;;-0.01;100.00;97389.00;5103428;28;20199;-58
2024/01/11 01:29:50;;;;;;;36.90;19.83;;;;;;;0.02;100.00;97384.56;5123470;28;20224;-59
2024/01/11 01:32:17;;;;;;;37.30;19.77;;;;;;;0.07;100.00;97393.06;5131230;28;20228;-57
2024/01/11 01:34:44;;;;;;;32.10;18.77;;;;;;;0.12;100.00;97391.94;5123010;28;20201;-59
2024/01/11 01:37:11;;;;;;;32.97;18.73;;;;;;;0.17;100.00;97395.22;5120495;28;20280;-58
2024/01/11 01:39:39;;;;;;;37.13;20.10;;;;;;;0.11;100.00;97389.44;5103031;28;20232;-59
2024/01/11 01:42:06;;;;;;;39.80;23.40;;;;;;;0.11;100.00;97397.22;5102971;28;20213;-59
2024/01/11 01:44:32;;;;;;;43.10;22.50;;;;;;;0.03;100.00;97386.28;5102065;27;20229;-58
2024/01/11 01:47:01;;;;;;;47.97;25.23;;;;;;;0.07;100.00;97398.25;5102673;27;20299;-58
2024/01/11 01:49:28;;;;;;;44.60;23.57;;;;;;;0.08;100.00;97402.53;5102791;28;20204;-58
2024/01/11 01:51:56;;;;;;;47.63;25.57;;;;;;;0.09;100.00;97394.66;5102728;28;20208;-58
2024/01/11 01:54:25;;;;;;;48.17;25.73;;;;;;;0.10;100.00;97400.72;5103427;27;20601;-58
2024/01/11 01:56:53;;;;;;;43.33;25.00;;;;;;;-0.06;100.00;97398.72;5087487;28;20208;-58
2024/01/11 01:59:20;;;;;;;41.67;23.17;;;;;;;-0.01;100.00;97407.19;5103768;28;20309;-58
2024/01/11 02:01:47;;;;;;;44.50;25.00;;;;;;;0.05;100.00;97407.84;5102933;27;20205;-58
2024/01/11 02:04:15;;;;;;;44.93;25.47;;;;;;;0.06;100.00;97409.56;5101875;28;20239;-58
2024/01/11 02:06:42;;;;;;;48.57;25.90;;;;;;;0.07;100.00;97411.25;5100711;27;20250;-58
2024/01/11 02:09:09;;;;;;;47.40;24.50;;;;;;;0.04;100.00;97412.19;5101277;28;20627;-58
2024/01/11 02:11:36;;;;;;;41.70;24.30;;;;;;;0.02;100.00;97416.63;5102446;28;20225;-58
2024/01/11 02:14:04;;;;;;;45.97;25.53;;;;;;;0.03;100.00;97420.94;5101760;28;20219;-59
2024/01/11 02:16:31;;;;;;;48.27;25.23;;;;;;;0.04;100.00;97413.97;5105533;28;20217;-59
2024/01/11 02:18:58;;;;;;;47.40;25.50;;;;;;;0.01;100.00;97414.91;5104813;28;20229;-59
2024/01/11 02:21:28;;;;;;;45.20;25.57;;;;;;;-0.03;100.00;97419.41;5103378;28;20296;-59
2024/01/11 02:24:03;;;;;;;46.30;26.33;;;;;;;-0.05;100.00;97425.56;5102760;27;20298;-59
2024/01/11 02:26:30;;;;;;;51.00;27.20;;;;;;;-0.20;100.00;97419.19;5101355;28;20191;-59
2024/01/11 02:28:58;;;;;;;49.83;26.80;;;;;;;-0.12;100.00;97419.78;5102834;28;20519;-57
2024/01/11 02:31:25;;;;;;;47.60;26.10;;;;;;;-0.15;100.00;97416.44;5101542;28;20541;-57
2024/01/11 02:33:52;;;;;;;44.17;26.13;;;;;;;-0.19;100.00;97413.13;5101921;28;20742;-57
2024/01/11 02:36:19;;;;;;;46.50;25.63;;;;;;;-0.14;100.00;97415.50;5101601;28;20273;-57
2024/01/11 02:38:46;;;;;;;45.07;24.00;;;;;;;-0.18;100.00;97409.59;5102749;28;20312;-59
2024/01/11 02:41:15;;;;;;;42.77;24.00;;;;;;;-0.26;100.00;97416.00;5101940;28;20216;-57
2024/01/11 02:43:46;;;;;;;45.57;24.77;;;;;;;-0.28;100.00;97418.66;5102616;27;20236;-58
2024/01/11 02:46:13;;;;;;;43.43;24.33;;;;;;;-0.33;100.00;97420.59;5101665;27;20211;-58
2024/01/11 02:48:42;;;;;;;44.20;22.77;;;;;;;-0.30;100.00;97417.00;5101775;28;20243;-59
2024/01/11 02:51:08;;;;;;;41.40;23.03;;;;;;;-0.25;100.00;97423.72;5101584;28;20208;-59
2024/01/11 02:53:35;;;;;;;40.53;22.57;;;;;;;-0.28;100.00;97429.03;5102459;28;20226;-58
2024/01/11 02:56:01;;;;;;;40.27;23.00;;;;;;;-0.24;100.00;97424.56;5102864;28;20530;-58
2024/01/11 02:58:29;;;;;;;43.83;22.93;;;;;;;-0.28;100.00;97423.00;5101961;28;20640;-58
2024/01/11 03:00:58;;;;;;;40.80;21.67;;;;;;;-0.27;100.00;97422.94;5101434;28;20213;-58
2024/01/11 03:03:25;;;;;;;45.40;21.73;;;;;;;-0.26;100.00;97416.00;5102702;28;20696;-59
2024/01/11 03:05:51;;;;;;;42.10;23.53;;;;;;;-0.30;100.00;97415.28;5101470;28;20245;-57
2024/01/11 03:08:18;;;;;;;41.10;23.40;;;;;;;-0.36;100.00;97407.72;5101543;28;20309;-58
2024/01/11 03:10:44;;;;;;;37.00;22.30;;;;;;;-0.26;100.00;97403.84;5100880;28;20208;-58
2024/01/11 03:13:12;;;;;;;38.20;21.20;;;;;;;-0.26;100.00;97405.59;5101839;28;20198;-58
2024/01/11 03:15:41;;;;;;;40.30;21.93;;;;;;;-0.20;100.00;97398.41;5100575;28;20202;-59
2024/01/11 03:18:08;;;;;;;38.00;21.70;;;;;;;-0.26;100.00;97398.66;5101346;28;20205;-59
2024/01/11 03:20:35;;;;;;;39.17;22.70;;;;;;;-0.25;100.00;97397.72;5100832;28;20224;-59
2024/01/11 03:23:02;;;;;;;42.93;22.57;;;;;;;-0.24;100.00;97396.84;5106672;28;20209;-59
2024/01/11 03:25:30;;;;;;;40.23;23.23;;;;;;;-0.32;100.00;97398.06;5091401;28;20200;-59
2024/01/11 03:27:56;;;;;;;39.00;22.17;;;;;;;-0.28;100.00;97400.44;5108068;28;20226;-59
2024/01/11 03:30:23;;;;;;;41.77;23.47;;;;;;;-0.28;100.00;97387.47;5111835;27;20218;-59
2024/01/11 03:32:54;;;;;;;39.70;22.50;;;;;;;-0.36;100.00;97399.91;5129194;28;20204;-58
2024/01/11 03:35:21;;;;;;;36.87;21.73;;;;;;;-0.33;100.00;97392.00;5131624;28;20192;-59
2024/01/11 03:37:48;;;;;;;41.53;21.73;;;;;;;-0.29;100.00;97392.72;5111613;28;20517;-58
2024/01/11 03:40:15;;;;;;;37.37;21.10;;;;;;;-0.27;100.00;97383.97;5108095;27;20225;-58
2024/01/11 03:42:43;;;;;;;41.40;22.53;;;;;;;-0.33;100.00;97399.81;5107972;28;20223;-59
2024/01/11 03:45:10;;;;;;;37.77;21.87;;;;;;;-0.25;100.00;97392.53;5108363;27;20293;-58
2024/01/11 03:47:37;;;;;;;39.80;21.90;;;;;;;-0.29;100.00;97390.97;5107548;28;20207;-59
2024/01/11 03:50:06;;;;;;;39.03;22.17;;;;;;;-0.36;100.00;97393.88;5108227;27;20203;-58
2024/01/11 03:52:33;;;;;;;43.03;22.07;;;;;;;-0.38;100.00;97391.31;5124147;28;21195;-59
2024/01/11 03:55:00;;;;;;;39.37;21.93;;;;;;;-0.31;100.00;97395.38;5129478;28;20251;-60
2024/01/11 03:57:26;;;;;;;40.30;22.80;;;;;;;-0.31;100.00;97397.97;5135528;28;20195;-57
2024/01/11 03:59:53;;;;;;;39.23;22.17;;;;;;;-0.23;100.00;97400.28;5113529;27;20883;-57
2024/01/11 04:02:21;;;;;;;40.90;21.90;;;;;;;-0.37;100.00;97397.38;5107282;27;20203;-58
2024/01/11 04:04:48;;;;;;;39.43;21.83;;;;;;;-0.30;100.00;97393.63;5107367;28;20577;-58
2024/01/11 04:07:16;;;;;;;37.17;21.47;;;;;;;-0.28;100.00;97397.00;5107206;28;20348;-57
2024/01/11 04:09:43;;;;;;;35.47;20.00;;;;;;;-0.30;100.00;97391.03;5107044;27;20196;-58
2024/01/11 04:12:11;;;;;;;38.43;21.17;;;;;;;-0.34;100.00;97392.03;5107034;28;20217;-58
2024/01/11 04:14:39;;;;;;;41.50;22.03;;;;;;;-0.29;100.00;97388.38;5106005;28;20196;-58
2024/01/11 04:17:06;;;;;;;42.37;21.93;;;;;;;-0.30;100.00;97394.47;5105602;27;20200;-58
2024/01/11 04:19:32;;;;;;;39.27;21.83;;;;;;;-0.32;100.00;97390.25;5105109;27;20227;-58
2024/01/11 04:21:59;;;;;;;36.37;22.27;;;;;;;-0.33;100.00;97388.56;5104950;28;20205;-58
2024/01/11 04:24:27;;;;;;;38.60;21.63;;;;;;;-0.29;100.00;97390.97;5107309;27;20199;-57
2024/01/11 04:26:54;;;;;;;37.67;21.10;;;;;;;-0.35;100.00;97386.00;5108627;28;20279;-58
2024/01/11 04:29:21;;;;;;;36.73;20.43;;;;;;;-0.38;100.00;97387.88;5109635;27;20262;-58
2024/01/11 04:31:47;;;;;;;40.70;21.47;;;;;;;-0.39;100.00;97388.78;5107149;28;20292;-58
2024/01/11 04:34:14;;;;;;;38.43;21.37;;;;;;;-0.37;100.00;97382.63;5103870;28;20296;-58
2024/01/11 04:36:43;;;;;;;37.50;21.07;;;;;;;-0.43;100.00;97382.88;5103240;28;20208;-59
2024/01/11 04:39:09;;;;;;;34.17;21.93;;;;;;;-0.33;100.00;97376.41;5101513;28;20204;-59
2024/01/11 04:41:38;;;;;;;39.23;21.37;;;;;;;-0.35;100.00;97379.94;5102604;28;20556;-58
2024/01/11 04:44:05;;;;;;;36.50;21.93;;;;;;;-0.39;100.00;97386.19;5102848;28;20201;-59
2024/01/11 04:46:32;;;;;;;34.00;19.80;;;;;;;-0.47;100.00;97383.03;5101904;28;20200;-58
2024/01/11 04:48:59;;;;;;;35.40;21.10;;;;;;;-0.51;100.00;97390.09;5103051;28;20299;-58
2024/01/11 04:51:25;;;;;;;33.33;18.30;;;;;;;-0.45;100.00;97382.06;5086764;28;20201;-58
2024/01/11 04:53:52;;;;;;;34.47;20.37;;;;;;;-0.47;100.00;97385.63;5101753;28;20199;-58
2024/01/11 04:56:18;;;;;;;36.80;20.63;;;;;;;-0.42;100.00;97381.09;5101902;28;20212;-58
2024/01/11 04:58:48;;;;;;;35.17;20.27;;;;;;;-0.35;100.00;97385.16;5101588;28;20523;-58
2024/01/11 05:01:19;;;;;;;40.80;21.83;;;;;;;-0.35;100.00;97375.59;5103368;27;20563;-58
2024/01/11 05:03:46;;;;;;;35.50;20.83;;;;;;;-0.32;100.00;97375.47;5101727;28;20504;-58
2024/01/11 05:06:16;;;;;;;39.73;21.67;;;;;;;-0.40;100.00;97385.34;5101246;28;20230;-59
2024/01/11 05:08:44;;;;;;;40.40;21.13;;;;;;;-0.40;100.00;97376.69;5102927;28;20293;-58
2024/01/11 05:11:20;;;;;;;35.40;20.67;;;;;;;-0.44;100.00;97365.59;5103117;28;20203;-58
2024/01/11 05:13:48;;;;;;;35.43;21.33;;;;;;;-0.44;100.00;97372.53;5103207;28;20208;-58
2024/01/11 05:16:22;;;;;;;37.83;21.40;;;;;;;-0.44;100.00;97375.97;5102224;28;20209;-59
2024/01/11 05:18:48;;;;;;;38.80;21.00;;;;;;;-0.38;100.00;97380.06;5102275;28;20666;-59
2024/01/11 05:21:15;;;;;;;35.03;20.60;;;;;;;-0.44;100.00;97370.78;5106070;28;20325;-57
2024/01/11 05:23:42;;;;;;;39.27;21.83;;;;;;;-0.37;100.00;97368.78;5105739;28;20311;-60
2024/01/11 05:26:10;;;;;;;40.87;21.17;;;;;;;-0.46;100.00;97372.56;5105156;28;20212;-58
2024/01/11 05:28:38;;;;;;;38.63;20.87;;;;;;;-0.47;100.00;97370.91;5102342;28;20238;-57
2024/01/11 05:31:07;;;;;;;36.60;21.20;;;;;;;-0.59;100.00;97380.00;5084645;28;20232;-58
2024/01/11 05:33:33;;;;;;;38.50;21.37;;;;;;;-0.49;100.00;97367.50;5100981;28;20212;-58
2024/01/11 05:36:00;;;;;;;39.83;20.83;;;;;;;-0.40;100.00;97371.50;5102210;28;20216;-57
2024/01/11 05:38:26;;;;;;;38.57;20.43;;;;;;;-0.40;100.00;97372.34;5102299;28;20200;-58
2024/01/11 05:40:53;;;;;;;36.53;20.97;;;;;;;-0.46;100.00;97371.75;5102106;27;20243;-58
2024/01/11 05:43:20;;;;;;;35.30;20.20;;;;;;;-0.49;100.00;97377.88;5102000;28;20211;-58
2024/01/11 05:45:48;;;;;;;35.60;19.67;;;;;;;-0.50;100.00;97373.63;5100890;27;20293;-57
2024/01/11 05:48:19;;;;;;;38.77;21.47;;;;;;;-0.53;100.00;97378.91;5102126;28;20220;-58
2024/01/11 05:50:46;;;;;;;37.80;21.90;;;;;;;-0.60;100.00;97369.66;5101248;28;20526;-58
2024/01/11 05:53:13;;;;;;;35.30;21.27;;;;;;;-0.55;100.00;97368.59;5100822;28;20202;-58
2024/01/11 05:55:40;;;;;;;40.20;20.77;;;;;;;-0.49;100.00;97367.50;5101633;28;20200;-58
2024/01/11 05:58:09;;;;;;;35.70;21.07;;;;;;;-0.37;100.00;97367.03;5101971;28;20210;-58
2024/01/11 06:00:36;;;;;;;37.00;21.17;;;;;;;-0.33;100.00;97368.63;5100343;28;20228;-58
2024/01/11 06:03:04;;;;;;;38.20;21.23;;;;;;;-0.27;100.00;97368.38;5101021;28;20220;-58
2024/01/11 06:05:37;;;;;;;37.90;20.50;;;;;;;-0.17;100.00;97367.09;5100653;28;20313;-58
2024/01/11 06:08:05;;;;;;;43.30;21.93;;;;;;;-0.13;100.00;97373.03;5101234;27;20289;-57
2024/01/11 06:10:31;;;;;;;36.67;20.07;;;;;;;-0.04;100.00;97375.28;5101197;28;20204;-57
2024/01/11 06:12:58;;;;;;;33.93;20.33;;;;;;;-0.03;100.00;97380.41;5102812;28;20208;-57
2024/01/11 06:15:25;;;;;;;34.07;19.93;;;;;;;-0.11;100.00;97379.84;5099979;28;20209;-59
2024/01/11 06:17:51;;;;;;;35.77;21.03;;;;;;;-0.15;100.00;97388.69;5100006;27;20209;-58
2024/01/11 06:20:18;;;;;;;37.27;20.47;;;;;;;-0.15;100.00;97383.50;5099487;28;20216;-57
2024/01/11 06:22:46;;;;;;;37.00;21.20;;;;;;;-0.17;100.00;97384.44;5100370;28;20204;-57
2024/01/11 06:25:13;;;;;;;35.10;20.63;;;;;;;-0.13;100.00;97384.28;5101721;28;20211;-58
2024/01/11 06:27:40;;;;;;;36.13;20.50;;;;;;;-0.06;100.00;97385.72;5100024;28;20208;-57
2024/01/11 06:30:08;;;;;;;44.17;21.43;;;;;;;0.00;100.00;97388.06;5103958;27;20208;-58
2024/01/11 06:32:36;;;;;;;35.80;20.47;;;;;;;-0.15;100.00;97393.91;5123550;28;20895;-58
2024/01/11 06:35:04;;;;;;;37.03;20.43;;;;;;;-0.02;100.00;97394.25;5120561;28;20293;-63
2024/01/11 06:37:30;;;;;;;38.73;21.63;;;;;;;-0.05;100.00;97390.03;5121710;27;20269;-58
2024/01/11 06:39:58;;;;;;;38.83;22.03;;;;;;;-0.02;100.00;97397.69;5118284;28;20253;-58
2024/01/11 06:42:27;;;;;;;40.17;21.50;;;;;;;-0.14;100.00;97387.75;5104389;28;20300;-56
2024/01/11 06:44:55;;;;;;;37.57;21.37;;;;;;;-0.23;100.00;97398.53;5102499;27;20232;-57
2024/01/11 06:47:23;;;;;;;40.47;21.13;;;;;;;-0.30;100.00;97404.03;5101322;28;20197;-56
2024/01/11 06:49:49;;;;;;;37.53;21.83;;;;;;;-0.25;100.00;97402.94;5101662;28;20258;-57
2024/01/11 06:52:16;;;;;;;34.57;20.30;;;;;;;-0.19;100.00;97400.13;5100364;28;20234;-57
2024/01/11 06:54:43;;;;;;;33.27;20.00;;;;;;;-0.11;100.00;97407.63;5099252;28;20256;-58
2024/01/11 06:57:10;;;;;;;33.60;19.50;;;;;;;-0.14;100.00;97407.72;5099073;28;20205;-58
2024/01/11 06:59:37;;;;;;;38.43;21.30;;;;;;;-0.12;100.00;97411.97;5101031;28;20208;-58
2024/01/11 07:02:04;;;;;;;37.77;20.90;;;;;;;-0.16;100.00;97414.75;5100023;28;20205;-59
2024/01/11 07:04:31;;;;;;;33.77;19.60;;;;;;;-0.21;100.00;97419.25;5099949;28;20213;-58
2024/01/11 07:06:58;;;;;;;35.63;20.70;;;;;;;-0.15;100.00;97427.69;5099291;28;20289;-57
2024/01/11 07:09:25;;;;;;;34.93;20.97;;;;;;;-0.18;100.00;97417.38;5100026;28;20299;-58
2024/01/11 07:11:51;;;;;;;37.00;20.13;;;;;;;-0.18;100.00;97419.16;5100892;27;20227;-58
2024/01/11 07:14:19;;;;;;;35.60;19.97;;;;;;;-0.21;100.00;97433.09;5100619;28;20312;-57
2024/01/11 07:16:46;;;;;;;34.63;19.60;;;;;;;-0.27;100.00;97435.94;5099608;28;20197;-57
2024/01/11 07:19:15;;;;;;;38.53;21.00;;;;;;;-0.31;100.00;97434.34;5101148;28;20195;-58
2024/01/11 07:21:41;;;;;;;37.50;21.33;;;;;;;-0.32;100.00;97437.03;5100551;28;20240;-58
2024/01/11 07:24:08;;;;;;;36.57;20.40;;;;;;;-0.30;100.00;97427.41;5100295;28;20196;-58
2024/01/11 07:26:34;;;;;;;35.57;20.13;;;;;;;-0.17;100.00;97432.09;5102167;28;20237;-59
2024/01/11 07:29:03;;;;;;;34.03;20.73;;;;;;;-0.20;100.00;97437.41;5100659;28;21113;-57
2024/01/11 07:31:30;;;;;;;33.67;20.27;;;;;;;-0.20;100.00;97432.19;5098391;28;20835;-58
2024/01/11 07:33:57;;;;;;;36.10;20.90;;;;;;;-0.12;100.00;97440.56;5099772;28;20307;-58
2024/01/11 07:36:24;;;;;;;38.70;21.60;;;;;;;-0.14;100.00;97441.50;5100691;28;20285;-58
2024/01/11 07:38:51;;;;;;;38.77;21.60;;;;;;;-0.20;100.00;97437.41;5099342;28;20212;-58
2024/01/11 07:41:18;;;;;;;36.97;21.10;;;;;;;-0.28;100.00;97451.56;5100754;28;20245;-59
2024/01/11 07:43:44;;;;;;;41.10;22.23;;;;;;;-0.23;100.00;97447.91;5101391;28;20333;-57
2024/01/11 07:46:11;;;;;;;37.53;20.57;;;;;;;-0.19;100.00;97449.50;5101781;28;20513;-58
2024/01/11 07:48:39;;;;;;;38.07;20.90;;;;;;;-0.17;100.00;97455.47;5103361;28;20279;-59
2024/01/11 07:51:05;;;;;;;36.40;20.23;;;;;;;-0.15;100.00;97450.22;5100789;28;20208;-57
2024/01/11 07:53:32;;;;;;;38.67;21.40;;;;;;;-0.16;100.00;97449.38;5101637;28;20294;-56
2024/01/11 07:55:59;;;;;;;39.80;21.93;;;;;;;-0.17;100.00;97459.81;5098681;28;20882;-57
2024/01/11 07:58:25;;;;;;;39.37;21.30;;;;;;;-0.21;100.00;97466.88;5101805;28;20300;-57
2024/01/11 08:00:52;;;;;;;35.87;21.10;;;;;;;-0.14;100.00;97468.34;5099413;28;20320;-55
2024/01/11 08:03:18;;;;;;;41.30;22.20;;;;;;;-0.13;100.00;97475.25;5100182;28;20534;-57
2024/01/11 08:05:46;;;;;;;41.40;21.07;;;;;;;-0.11;100.00;97459.63;5100008;28;20244;-57
2024/01/11 08:08:13;;;;;;;40.53;20.50;;;;;;;-0.20;100.00;97468.59;5103852;28;20288;-56
2024/01/11 08:10:39;;;;;;;34.50;19.93;;;;;;;-0.16;100.00;97472.78;5105402;28;20292;-57
2024/01/11 08:13:06;;;;;;;34.20;19.97;;;;;;;-0.10;100.00;97482.94;5104251;27;20311;-58
2024/01/11 08:15:32;;;;;;;35.80;20.27;;;;;;;-0.10;100.00;97482.09;5104362;27;20208;-56
2024/01/11 08:18:00;;;;;;;36.90;20.50;;;;;;;-0.17;100.00;97486.66;5103422;27;20594;-58
2024/01/11 08:20:27;;;;;;;35.67;20.43;;;;;;;-0.13;100.00;97490.84;5102454;28;20246;-58
2024/01/11 08:22:56;;;;;;;38.40;21.83;;;;;;;-0.18;100.00;97489.34;5104849;27;20538;-57
2024/01/11 08:25:22;;;;;;;35.57;19.90;;;;;;;-0.20;100.00;97491.97;5103812;27;20543;-57
2024/01/11 08:27:49;;;;;;;37.97;22.07;;;;;;;-0.27;100.00;97490.50;5104687;28;20197;-57
2024/01/11 08:30:16;;;;;;;38.63;21.90;;;;;;;-0.27;100.00;97493.13;5103321;28;20656;-57
2024/01/11 08:32:43;;;;;;;41.37;21.27;;;;;;;-0.33;100.00;97497.69;5105321;28;20204;-58
2024/01/11 08:35:11;;;;;;;37.07;20.67;;;;;;;-0.26;100.00;97500.00;5102067;28;20212;-58
2024/01/11 08:37:38;;;;;;;45.33;22.67;;;;;;;-0.28;100.00;97495.75;5102005;28;20254;-57
2024/01/11 08:40:07;;;;;;;39.83;22.57;;;;;;;-0.31;100.00;97495.88;5102181;28;20653;-58
2024/01/11 08:42:35;;;;;;;37.93;22.07;;;;;;;-0.21;100.00;97492.88;5103296;28;20509;-58
2024/01/11 08:45:06;;;;;;;40.53;22.50;;;;;;;-0.12;100.00;97496.91;5105726;28;20303;-57
2024/01/11 08:47:33;;;;;;;41.30;23.97;;;;;;;-0.11;100.00;97503.81;5105592;27;20617;-57
2024/01/11 08:50:00;;;;;;;40.27;23.13;;;;;;;-0.10;100.00;97498.53;5107455;27;20213;-58
2024/01/11 08:52:27;;;;;;;38.40;22.67;;;;;;;-0.19;100.00;97493.69;5108059;28;20194;-61
2024/01/11 08:54:53;;;;;;;41.93;23.67;;;;;;;-0.17;100.00;97493.59;5107128;27;20300;-57
2024/01/11 08:57:21;;;;;;;40.27;22.70;;;;;;;-0.05;100.00;97494.03;5104775;28;20201;-58
2024/01/11 08:59:48;;;;;;;41.43;24.23;;;;;;;-0.11;100.00;97491.63;5103868;28;20214;-57
2024/01/11 09:02:14;;;;;;;42.73;25.03;;;;;;;-0.18;100.00;97490.16;5102284;28;20855;-57
2024/01/11 09:04:41;;;;;;;44.93;25.03;;;;;;;-0.18;100.00;97489.34;5102280;27;20208;-57
2024/01/11 09:07:07;;;;;;;41.47;24.83;;;;;;;-0.25;100.00;97493.91;5102005;28;20878;-57
2024/01/11 09:09:34;;;;;;;41.00;23.53;;;;;;;-0.19;100.00;97504.09;5102350;28;20209;-57
2024/01/11 09:12:00;;;;;;;41.63;23.83;;;;;;;-0.23;100.00;97504.25;5101788;28;20220;-58
2024/01/11 09:14:28;;;;;;;44.17;24.40;;;;;;;-0.29;100.00;97510.53;5102043;28;20216;-58
2024/01/11 09:16:55;;;;;;;38.33;21.47;;;;;;;-0.27;100.00;97516.50;5101429;27;20212;-57
2024/01/11 09:19:22;;;;;;;38.33;22.00;;;;;;;-0.32;100.00;97505.41;5102446;28;20202;-57
2024/01/11 09:21:48;;;;;;;38.47;23.07;;;;;;;-0.39;100.00;97514.34;5101617;28;20247;-56
2024/01/11 09:24:15;;;;;;;39.37;22.67;;;;;;;-0.35;100.00;97513.31;5102943;28;20305;-54
2024/01/11 09:26:42;;;;;;;40.33;22.97;;;;;;;-0.37;100.00;97516.91;5102980;27;20219;-56
2024/01/11 09:29:08;;;;;;;38.40;23.13;;;;;;;-0.32;100.00;97520.19;5102275;27;20308;-56
2024/01/11 09:31:38;;;;;;;39.27;21.87;;;;;;;-0.22;100.00;97526.75;5102171;28;20229;-56
2024/01/11 09:34:05;;;;;;;39.17;22.73;;;;;;;-0.31;100.00;97525.31;5101039;28;20197;-57
2024/01/11 09:36:31;;;;;;;37.00;22.77;;;;;;;-0.30;100.00;97532.22;5102165;28;20223;-57
2024/01/11 09:38:58;;;;;;;38.00;23.00;;;;;;;-0.25;100.00;97532.06;5100639;27;20278;-56
2024/01/11 09:41:25;;;;;;;41.33;24.00;;;;;;;-0.20;100.00;97538.78;5101153;28;20691;-57
2024/01/11 09:43:54;;;;;;;43.33;25.43;;;;;;;-0.18;100.00;97546.53;5101347;28;20198;-57
2024/01/11 09:46:22;;;;;;;45.03;26.23;;;;;;;-0.28;100.00;97543.38;5101628;28;20214;-56
2024/01/11 09:48:51;;;;;;;43.93;25.93;;;;;;;-0.37;100.00;97537.69;5100813;28;20581;-56
2024/01/11 09:51:19;;;;;;;48.63;26.87;;;;;;;-0.41;100.00;97534.34;5100558;28;20205;-56
2024/01/11 09:53:47;;;;;;;51.20;28.83;;;;;;;-0.31;100.00;97524.47;5103557;27;20237;-56
2024/01/11 09:56:14;;;;;;;49.10;28.07;;;;;;;-0.35;100.00;97522.88;5102210;28;20286;-57
2024/01/11 09:58:43;;;;;;;48.23;28.53;;;;;;;-0.37;100.00;97527.28;5106230;28;20278;-60
2024/01/11 10:01:12;;;;;;;48.07;27.93;;;;;;;-0.36;100.00;97529.00;5113989;28;20254;-58
2024/01/11 10:03:40;;;;;;;48.80;28.00;;;;;;;-0.28;100.00;97522.59;5112349;28;20276;-57
2024/01/11 10:06:08;;;;;;;51.67;29.17;;;;;;;-0.31;100.00;97524.47;5100480;28;20241;-57
2024/01/11 10:08:35;;;;;;;47.27;28.97;;;;;;;-0.38;100.00;97525.59;5101838;27;20219;-55
2024/01/11 10:11:01;;;;;;;47.77;27.27;;;;;;;-0.42;100.00;97524.84;5101274;28;20204;-56
2024/01/11 10:13:29;;;;;;;49.17;28.33;;;;;;;-0.44;100.00;97525.81;5100954;28;20219;-56
2024/01/11 10:16:07;;;;;;;45.80;28.10;;;;;;;-0.47;100.00;97523.31;5099893;28;20206;-57
2024/01/11 10:18:33;;;;;;;47.40;27.13;;;;;;;-0.34;100.00;97521.97;5107367;27;20193;-57
2024/01/11 10:21:00;;;;;;;45.50;26.57;;;;;;;-0.44;100.00;97523.22;5104981;27;20236;-56
2024/01/11 10:23:29;;;;;;;49.33;28.23;;;;;;;-0.46;100.00;97520.66;5105586;28;20268;-57
2024/01/11 10:25:57;;;;;;;47.53;27.13;;;;;;;-0.46;100.00;97528.44;5105114;27;20204;-57
2024/01/11 10:28:24;;;;;;;46.70;26.43;;;;;;;-0.54;100.00;97538.28;5106945;28;20238;-57
2024/01/11 10:30:52;;;;;;;45.07;26.80;;;;;;;-0.53;100.00;97532.16;5102678;28;20626;-57
2024/01/11 10:33:20;;;;;;;46.07;27.33;;;;;;;-0.56;100.00;97537.47;5105227;28;20201;-57
2024/01/11 10:35:48;;;;;;;50.40;27.37;;;;;;;-0.54;100.00;97533.09;5104898;28;20212;-58
2024/01/11 10:38:15;;;;;;;47.30;26.60;;;;;;;-0.48;100.00;97529.41;5104032;28;20223;-57
2024/01/11 10:40:43;;;;;;;46.07;26.57;;;;;;;-0.54;100.00;97513.16;5103849;28;20209;-58
2024/01/11 10:43:11;;;;;;;45.30;26.50;;;;;;;-0.41;100.00;97517.91;5104657;28;20241;-57
2024/01/11 10:45:39;;;;;;;46.30;27.07;;;;;;;-0.34;100.00;97520.22;5103911;28;20620;-57
2024/01/11 10:48:07;;;;;;;47.80;26.83;;;;;;;-0.33;100.00;97527.13;5103594;28;20219;-57
2024/01/11 10:50:37;;;;;;;48.20;26.93;;;;;;;-0.36;100.00;97519.44;5100673;28;20220;-56
2024/01/11 10:53:06;;;;;;;42.13;26.37;;;;;;;-0.36;100.00;97529.00;5100108;28;20288;-58
2024/01/11 10:55:34;;;;;;;43.20;25.67;;;;;;;-0.24;100.00;97529.38;5100017;28;20209;-58
2024/01/11 10:58:03;;;;;;;46.30;27.57;;;;;;;-0.29;100.00;97536.53;5101653;27;20316;-60
2024/01/11 11:00:30;;;;;;;49.63;28.33;;;;;;;-0.33;100.00;97534.06;5104938;28;20213;-62
2024/01/11 11:03:00;;;;;;;44.80;26.47;;;;;;;-0.32;100.00;97536.59;5105572;28;20229;-60
2024/01/11 11:05:29;;;;;;;46.37;26.43;;;;;;;-0.34;100.00;97543.63;5108179;28;20232;-60
2024/01/11 11:07:56;;;;;;;44.47;27.30;;;;;;;-0.41;100.00;97539.53;5105663;28;20251;-61
2024/01/11 11:10:24;;;;;;;47.60;27.47;;;;;;;-0.42;100.00;97539.59;5102127;28;20539;-59